createdAt,value
2023-10-03T00:00:28.986Z,0.00
2023-10-03T00:01:29.013Z,0.00
2023-10-03T00:02:29.039Z,0.00
2023-10-03T00:03:29.180Z,0.00
2023-10-03T00:04:28.949Z,0.00
2023-10-03T00:05:28.959Z,0.00
2023-10-03T00:06:28.905Z,0.00
2023-10-03T00:07:28.910Z,0.00
2023-10-03T00:08:28.960Z,0.00
2023-10-03T00:09:28.877Z,0.00
2023-10-03T00:10:28.887Z,0.00
2023-10-03T00:11:28.887Z,0.00
2023-10-03T00:12:28.844Z,0.00
2023-10-03T00:13:28.847Z,0.00
2023-10-03T00:14:29.859Z,0.00
2023-10-03T00:15:29.724Z,0.00
2023-10-03T00:16:29.154Z,0.00
2023-10-03T00:17:28.878Z,0.00
2023-10-03T00:18:28.829Z,0.00
2023-10-03T00:19:28.779Z,0.00
2023-10-03T00:20:28.794Z,0.00
2023-10-03T00:21:28.747Z,0.00
2023-10-03T00:22:28.772Z,0.00
2023-10-03T00:23:28.838Z,0.00
2023-10-03T00:24:28.714Z,0.00
2023-10-03T00:25:28.694Z,0.00
2023-10-03T00:26:28.694Z,0.00
2023-10-03T00:27:28.685Z,0.00
2023-10-03T00:28:28.673Z,0.00
2023-10-03T00:29:28.692Z,0.00
2023-10-03T00:30:28.661Z,0.00
2023-10-03T00:31:28.650Z,0.00
2023-10-03T00:32:28.688Z,0.00
2023-10-03T00:33:28.731Z,0.00
2023-10-03T00:34:28.645Z,0.00
2023-10-03T00:35:28.612Z,0.00
2023-10-03T00:36:28.575Z,0.00
2023-10-03T00:37:28.584Z,0.00
2023-10-03T00:38:28.609Z,0.00
2023-10-03T00:39:28.570Z,0.00
2023-10-03T00:40:28.664Z,0.00
2023-10-03T00:41:28.519Z,0.00
2023-10-03T00:42:28.510Z,0.00
2023-10-03T00:43:28.580Z,0.00
2023-10-03T00:44:28.533Z,0.00
2023-10-03T00:45:28.478Z,0.00
2023-10-03T00:46:28.516Z,0.00
2023-10-03T00:47:28.562Z,0.00
2023-10-03T00:48:28.634Z,0.00
2023-10-03T00:49:28.437Z,0.00
2023-10-03T00:50:28.515Z,0.00
2023-10-03T00:51:28.594Z,0.00
2023-10-03T00:52:28.403Z,0.00
2023-10-03T00:53:28.461Z,0.00
2023-10-03T00:54:28.376Z,0.00
2023-10-03T00:55:28.364Z,0.00
2023-10-03T00:56:28.372Z,0.00
2023-10-03T00:57:28.345Z,0.00
2023-10-03T00:58:28.334Z,0.00
2023-10-03T00:59:29.321Z,0.00
2023-10-03T01:00:28.409Z,0.00
2023-10-03T01:01:28.320Z,0.00
2023-10-03T01:02:28.412Z,0.00
2023-10-03T01:03:28.542Z,0.00
2023-10-03T01:04:28.432Z,0.00
2023-10-03T01:05:28.359Z,0.00
2023-10-03T01:06:28.269Z,0.00
2023-10-03T01:07:28.235Z,0.00
2023-10-03T01:08:28.262Z,0.00
2023-10-03T01:09:28.208Z,0.00
2023-10-03T01:10:28.185Z,0.00
2023-10-03T01:11:28.242Z,0.00
2023-10-03T01:12:28.170Z,0.00
2023-10-03T01:13:28.205Z,0.00
2023-10-03T01:14:28.208Z,0.00
2023-10-03T01:15:28.146Z,0.00
2023-10-03T01:16:28.251Z,0.00
2023-10-03T01:17:28.173Z,0.00
2023-10-03T01:18:28.256Z,0.00
2023-10-03T01:19:28.114Z,0.00
2023-10-03T01:20:28.229Z,0.00
2023-10-03T01:21:28.112Z,0.00
2023-10-03T01:22:28.103Z,0.00
2023-10-03T01:23:28.106Z,0.00
2023-10-03T01:24:28.060Z,0.00
2023-10-03T01:25:28.040Z,0.00
2023-10-03T01:26:28.089Z,0.00
2023-10-03T01:27:27.994Z,0.00
2023-10-03T01:28:27.997Z,0.00
2023-10-03T01:29:28.646Z,0.00
2023-10-03T01:30:28.000Z,0.00
2023-10-03T01:31:28.033Z,0.00
2023-10-03T01:32:28.059Z,0.00
2023-10-03T01:33:28.021Z,0.00
2023-10-03T01:34:27.924Z,0.00
2023-10-03T01:35:27.961Z,0.00
2023-10-03T01:36:27.935Z,0.00
2023-10-03T01:37:27.906Z,0.00
2023-10-03T01:38:27.988Z,0.00
2023-10-03T01:39:27.879Z,0.00
2023-10-03T01:40:27.863Z,0.00
2023-10-03T01:41:27.888Z,0.00
2023-10-03T01:42:27.851Z,0.00
2023-10-03T01:43:27.825Z,0.00
2023-10-03T01:44:27.937Z,0.00
2023-10-03T01:45:27.808Z,0.00
2023-10-03T01:46:27.824Z,0.00
2023-10-03T01:47:27.825Z,0.00
2023-10-03T01:48:27.838Z,0.00
2023-10-03T01:49:27.769Z,0.00
2023-10-03T01:50:27.784Z,0.00
2023-10-03T01:51:27.781Z,0.00
2023-10-03T01:52:27.730Z,0.00
2023-10-03T01:53:27.767Z,0.00
2023-10-03T01:54:27.720Z,0.00
2023-10-03T01:55:27.713Z,0.00
2023-10-03T01:56:27.917Z,0.00
2023-10-03T01:57:27.691Z,0.00
2023-10-03T01:58:27.692Z,0.00
2023-10-03T01:59:27.670Z,0.00
2023-10-03T02:00:27.672Z,0.00
2023-10-03T02:01:27.667Z,0.00
2023-10-03T02:02:27.638Z,0.00
2023-10-03T02:03:27.782Z,0.00
2023-10-03T02:04:27.726Z,0.00
2023-10-03T02:05:27.678Z,0.00
2023-10-03T02:06:27.590Z,0.00
2023-10-03T02:07:27.611Z,0.00
2023-10-03T02:08:27.587Z,0.00
2023-10-03T02:09:27.559Z,0.00
2023-10-03T02:10:27.548Z,0.00
2023-10-03T02:11:27.552Z,0.00
2023-10-03T02:12:27.514Z,0.00
2023-10-03T02:13:28.568Z,0.00
2023-10-03T02:14:27.555Z,0.00
2023-10-03T02:15:27.613Z,0.00
2023-10-03T02:16:27.509Z,0.00
2023-10-03T02:17:27.524Z,0.00
2023-10-03T02:18:27.589Z,0.00
2023-10-03T02:19:27.463Z,0.00
2023-10-03T02:20:27.479Z,0.00
2023-10-03T02:21:27.431Z,0.00
2023-10-03T02:22:27.428Z,0.00
2023-10-03T02:23:27.488Z,0.00
2023-10-03T02:24:27.424Z,0.00
2023-10-03T02:25:27.418Z,0.00
2023-10-03T02:26:27.370Z,0.00
2023-10-03T02:27:27.410Z,0.00
2023-10-03T02:28:27.444Z,0.00
2023-10-03T02:29:27.395Z,0.00
2023-10-03T02:30:27.336Z,0.00
2023-10-03T02:31:27.352Z,0.00
2023-10-03T02:32:27.431Z,0.00
2023-10-03T02:33:27.472Z,0.00
2023-10-03T02:34:27.331Z,0.00
2023-10-03T02:35:27.359Z,0.00
2023-10-03T02:36:27.277Z,0.00
2023-10-03T02:37:27.265Z,0.00
2023-10-03T02:38:27.415Z,0.00
2023-10-03T02:39:27.239Z,0.00
2023-10-03T02:40:27.231Z,0.00
2023-10-03T02:41:27.241Z,0.00
2023-10-03T02:42:27.214Z,0.00
2023-10-03T02:43:27.244Z,0.00
2023-10-03T02:44:27.236Z,0.00
2023-10-03T02:45:27.188Z,0.00
2023-10-03T02:46:27.227Z,0.00
2023-10-03T02:47:27.182Z,0.00
2023-10-03T02:48:27.192Z,0.00
2023-10-03T02:49:27.150Z,0.00
2023-10-03T02:50:27.200Z,0.00
2023-10-03T02:51:27.130Z,0.00
2023-10-03T02:52:27.117Z,0.00
2023-10-03T02:53:27.119Z,0.00
2023-10-03T02:54:27.103Z,0.00
2023-10-03T02:55:27.093Z,0.00
2023-10-03T02:56:27.102Z,0.00
2023-10-03T02:57:27.072Z,0.00
2023-10-03T02:58:27.085Z,0.00
2023-10-03T02:59:27.070Z,0.00
2023-10-03T03:00:27.032Z,0.00
2023-10-03T03:01:27.101Z,0.00
2023-10-03T03:02:27.139Z,0.00
2023-10-03T03:03:27.080Z,0.00
2023-10-03T03:04:27.133Z,0.00
2023-10-03T03:05:27.030Z,0.00
2023-10-03T03:06:26.955Z,0.00
2023-10-03T03:07:27.954Z,0.00
2023-10-03T03:08:26.963Z,0.00
2023-10-03T03:09:26.957Z,0.00
2023-10-03T03:10:26.925Z,0.00
2023-10-03T03:11:26.946Z,0.00
2023-10-03T03:12:26.904Z,0.00
2023-10-03T03:13:27.926Z,0.00
2023-10-03T03:14:26.911Z,0.00
2023-10-03T03:15:26.888Z,0.00
2023-10-03T03:16:26.904Z,0.00
2023-10-03T03:17:26.898Z,0.00
2023-10-03T03:18:27.008Z,0.00
2023-10-03T03:19:26.833Z,0.00
2023-10-03T03:20:26.885Z,0.00
2023-10-03T03:21:26.833Z,0.00
2023-10-03T03:22:26.818Z,0.00
2023-10-03T03:23:26.853Z,0.00
2023-10-03T03:24:26.806Z,0.00
2023-10-03T03:25:26.786Z,0.00
2023-10-03T03:26:26.790Z,0.00
2023-10-03T03:27:26.750Z,0.00
2023-10-03T03:28:26.798Z,0.00
2023-10-03T03:29:26.818Z,0.00
2023-10-03T03:30:26.740Z,0.00
2023-10-03T03:31:26.768Z,0.00
2023-10-03T03:32:26.750Z,0.00
2023-10-03T03:33:26.782Z,0.00
2023-10-03T03:34:26.744Z,0.00
2023-10-03T03:35:26.752Z,0.00
2023-10-03T03:36:26.674Z,0.00
2023-10-03T03:37:26.674Z,0.00
2023-10-03T03:38:26.671Z,0.00
2023-10-03T03:39:26.664Z,0.00
2023-10-03T03:40:26.641Z,0.00
2023-10-03T03:41:26.661Z,0.00
2023-10-03T03:42:26.654Z,0.00
2023-10-03T03:43:26.616Z,0.00
2023-10-03T03:44:27.088Z,0.00
2023-10-03T03:45:26.650Z,0.00
2023-10-03T03:46:26.570Z,0.00
2023-10-03T03:47:26.662Z,0.00
2023-10-03T03:48:26.643Z,0.00
2023-10-03T03:49:26.675Z,0.00
2023-10-03T03:50:26.555Z,0.00
2023-10-03T03:51:26.551Z,0.00
2023-10-03T03:52:26.516Z,0.00
2023-10-03T03:53:27.252Z,0.00
2023-10-03T03:54:26.507Z,0.00
2023-10-03T03:55:26.485Z,0.00
2023-10-03T03:56:26.496Z,0.00
2023-10-03T03:57:26.490Z,0.00
2023-10-03T03:58:26.447Z,0.00
2023-10-03T03:59:26.470Z,0.00
2023-10-03T04:00:26.428Z,0.00
2023-10-03T04:01:26.440Z,0.00
2023-10-03T04:02:26.460Z,0.00
2023-10-03T04:03:26.518Z,0.00
2023-10-03T04:04:26.540Z,0.00
2023-10-03T04:05:26.444Z,0.00
2023-10-03T04:06:26.358Z,0.00
2023-10-03T04:07:26.363Z,0.00
2023-10-03T04:08:26.359Z,0.00
2023-10-03T04:09:26.466Z,0.00
2023-10-03T04:10:26.343Z,0.00
2023-10-03T04:11:26.324Z,0.00
2023-10-03T04:12:26.319Z,0.00
2023-10-03T04:13:26.317Z,0.00
2023-10-03T04:14:26.312Z,0.00
2023-10-03T04:15:26.310Z,0.00
2023-10-03T04:16:26.284Z,0.00
2023-10-03T04:17:26.332Z,0.00
2023-10-03T04:18:26.325Z,0.00
2023-10-03T04:19:26.246Z,0.00
2023-10-03T04:20:26.267Z,0.00
2023-10-03T04:21:26.218Z,0.00
2023-10-03T04:22:26.214Z,0.00
2023-10-03T04:23:26.240Z,0.00
2023-10-03T04:24:26.241Z,0.00
2023-10-03T04:25:26.202Z,0.00
2023-10-03T04:26:26.246Z,0.00
2023-10-03T04:27:26.184Z,0.00
2023-10-03T04:28:26.151Z,0.00
2023-10-03T04:29:26.177Z,0.00
2023-10-03T04:30:26.125Z,0.00
2023-10-03T04:31:26.158Z,0.00
2023-10-03T04:32:26.167Z,0.00
2023-10-03T04:33:26.160Z,0.00
2023-10-03T04:34:26.154Z,0.00
2023-10-03T04:35:26.713Z,0.00
2023-10-03T04:36:26.203Z,0.00
2023-10-03T04:37:26.058Z,0.00
2023-10-03T04:38:26.081Z,0.00
2023-10-03T04:39:26.068Z,0.00
2023-10-03T04:40:26.031Z,0.00
2023-10-03T04:41:26.103Z,0.00
2023-10-03T04:42:26.058Z,0.00
2023-10-03T04:43:25.998Z,0.00
2023-10-03T04:44:26.113Z,0.00
2023-10-03T04:45:26.038Z,0.00
2023-10-03T04:46:26.050Z,0.00
2023-10-03T04:47:26.657Z,0.00
2023-10-03T04:48:26.097Z,0.00
2023-10-03T04:49:25.943Z,0.00
2023-10-03T04:50:25.966Z,0.00
2023-10-03T04:51:25.934Z,0.00
2023-10-03T04:52:25.924Z,0.00
2023-10-03T04:53:25.921Z,0.00
2023-10-03T04:54:25.913Z,0.00
2023-10-03T04:55:25.894Z,4.00
2023-10-03T04:56:25.902Z,4.00
2023-10-03T04:57:25.896Z,0.00
2023-10-03T04:58:26.659Z,4.00
2023-10-03T04:59:25.903Z,4.00
2023-10-03T05:00:26.601Z,4.00
2023-10-03T05:01:27.241Z,4.00
2023-10-03T05:02:26.851Z,4.00
2023-10-03T05:03:26.840Z,8.00
2023-10-03T05:04:25.979Z,8.00
2023-10-03T05:05:25.803Z,8.00
2023-10-03T05:06:25.776Z,8.00
2023-10-03T05:07:26.605Z,12.00
2023-10-03T05:08:25.951Z,16.00
2023-10-03T05:09:25.729Z,16.00
2023-10-03T05:10:25.707Z,20.00
2023-10-03T05:11:25.880Z,28.00
2023-10-03T05:12:26.642Z,32.00
2023-10-03T05:13:26.700Z,36.00
2023-10-03T05:14:26.682Z,44.00
2023-10-03T05:15:25.680Z,56.00
2023-10-03T05:16:25.671Z,60.00
2023-10-03T05:17:25.800Z,72.00
2023-10-03T05:18:26.300Z,84.00
2023-10-03T05:19:25.627Z,96.00
2023-10-03T05:20:25.624Z,112.00
2023-10-03T05:21:25.616Z,124.00
2023-10-03T05:22:25.697Z,136.00
2023-10-03T05:23:25.750Z,156.00
2023-10-03T05:24:25.620Z,176.00
2023-10-03T05:25:25.538Z,192.00
2023-10-03T05:26:25.614Z,212.00
2023-10-03T05:27:25.534Z,240.00
2023-10-03T05:28:25.538Z,272.00
2023-10-03T05:29:25.547Z,300.00
2023-10-03T05:30:25.504Z,336.00
2023-10-03T05:31:25.759Z,372.00
2023-10-03T05:32:25.551Z,412.00
2023-10-03T05:33:25.700Z,456.00
2023-10-03T05:34:25.463Z,500.00
2023-10-03T05:35:25.488Z,548.00
2023-10-03T05:36:26.445Z,604.00
2023-10-03T05:37:25.431Z,660.00
2023-10-03T05:38:25.470Z,712.00
2023-10-03T05:39:25.400Z,772.00
2023-10-03T05:40:25.392Z,824.00
2023-10-03T05:41:25.489Z,876.00
2023-10-03T05:42:26.791Z,924.00
2023-10-03T05:43:25.555Z,972.00
2023-10-03T05:44:25.371Z,1024.00
2023-10-03T05:45:25.350Z,1076.00
2023-10-03T05:46:25.408Z,1136.00
2023-10-03T05:47:25.414Z,1192.00
2023-10-03T05:48:25.344Z,1264.00
2023-10-03T05:49:25.296Z,1336.00
2023-10-03T05:50:25.572Z,1416.00
2023-10-03T05:51:25.283Z,1480.00
2023-10-03T05:52:25.258Z,1540.00
2023-10-03T05:53:25.281Z,1588.00
2023-10-03T05:54:25.242Z,1648.00
2023-10-03T05:55:25.233Z,1704.00
2023-10-03T05:56:25.298Z,1780.00
2023-10-03T05:57:25.225Z,1880.00
2023-10-03T05:58:25.207Z,1988.00
2023-10-03T05:59:25.273Z,2092.00
2023-10-03T06:00:25.216Z,2168.00
2023-10-03T06:01:25.184Z,2264.00
2023-10-03T06:02:25.200Z,2364.00
2023-10-03T06:03:25.216Z,2472.00
2023-10-03T06:04:25.207Z,2588.00
2023-10-03T06:05:26.207Z,2660.00
2023-10-03T06:06:25.157Z,2692.00
2023-10-03T06:07:25.111Z,2688.00
2023-10-03T06:08:25.147Z,2656.00
2023-10-03T06:09:25.108Z,2604.00
2023-10-03T06:10:25.092Z,2560.00
2023-10-03T06:11:25.074Z,2556.00
2023-10-03T06:12:25.067Z,2596.00
2023-10-03T06:13:25.075Z,2672.00
2023-10-03T06:14:25.069Z,2788.00
2023-10-03T06:15:25.011Z,2908.00
2023-10-03T06:16:25.053Z,3008.00
2023-10-03T06:17:25.079Z,3080.00
2023-10-03T06:18:25.022Z,3136.00
2023-10-03T06:19:24.963Z,3176.00
2023-10-03T06:20:25.026Z,3204.00
2023-10-03T06:21:25.037Z,3216.00
2023-10-03T06:22:24.930Z,3244.00
2023-10-03T06:23:25.009Z,3280.00
2023-10-03T06:24:24.928Z,3296.00
2023-10-03T06:25:24.927Z,3296.00
2023-10-03T06:26:25.058Z,3332.00
2023-10-03T06:27:24.884Z,3252.00
2023-10-03T06:28:24.888Z,3228.00
2023-10-03T06:29:24.953Z,3272.00
2023-10-03T06:30:24.888Z,3276.00
2023-10-03T06:31:24.888Z,3420.00
2023-10-03T06:32:24.902Z,3544.00
2023-10-03T06:33:24.915Z,3636.00
2023-10-03T06:34:24.877Z,3868.00
2023-10-03T06:35:24.846Z,3728.00
2023-10-03T06:36:24.785Z,3180.00
2023-10-03T06:37:24.784Z,3088.00
2023-10-03T06:38:25.131Z,2912.00
2023-10-03T06:39:24.756Z,2868.00
2023-10-03T06:40:25.538Z,2816.00
2023-10-03T06:41:24.746Z,2788.00
2023-10-03T06:42:24.730Z,2792.00
2023-10-03T06:43:24.698Z,2844.00
2023-10-03T06:44:24.886Z,2820.00
2023-10-03T06:45:24.679Z,2796.00
2023-10-03T06:46:24.750Z,2800.00
2023-10-03T06:47:24.851Z,2780.00
2023-10-03T06:48:24.937Z,2748.00
2023-10-03T06:49:24.646Z,2744.00
2023-10-03T06:50:24.886Z,2748.00
2023-10-03T06:51:24.602Z,2768.00
2023-10-03T06:52:24.596Z,2828.00
2023-10-03T06:53:24.624Z,2904.00
2023-10-03T06:54:24.574Z,2968.00
2023-10-03T06:55:24.566Z,3032.00
2023-10-03T06:56:24.593Z,3092.00
2023-10-03T06:57:24.706Z,3172.00
2023-10-03T06:58:24.515Z,3260.00
2023-10-03T06:59:25.143Z,3320.00
2023-10-03T07:00:24.493Z,3412.00
2023-10-03T07:01:24.591Z,3464.00
2023-10-03T07:02:25.213Z,3532.00
2023-10-03T07:03:24.686Z,3560.00
2023-10-03T07:04:24.539Z,3540.00
2023-10-03T07:05:25.042Z,3472.00
2023-10-03T07:06:25.435Z,3428.00
2023-10-03T07:07:24.452Z,3384.00
2023-10-03T07:08:24.508Z,3376.00
2023-10-03T07:09:24.414Z,3364.00
2023-10-03T07:10:24.390Z,3396.00
2023-10-03T07:11:24.362Z,3412.00
2023-10-03T07:12:24.360Z,3464.00
2023-10-03T07:13:26.020Z,3580.00
2023-10-03T07:14:25.395Z,3576.00
2023-10-03T07:15:24.325Z,3616.00
2023-10-03T07:16:24.396Z,3952.00
2023-10-03T07:17:24.581Z,3688.00
2023-10-03T07:18:24.385Z,3724.00
2023-10-03T07:19:24.282Z,3784.00
2023-10-03T07:20:24.263Z,3804.00
2023-10-03T07:21:24.263Z,3808.00
2023-10-03T07:22:24.355Z,3856.00
2023-10-03T07:23:24.230Z,3900.00
2023-10-03T07:24:24.225Z,3996.00
2023-10-03T07:25:24.212Z,4152.00
2023-10-03T07:26:24.189Z,4336.00
2023-10-03T07:27:24.220Z,4580.00
2023-10-03T07:28:24.163Z,4816.00
2023-10-03T07:29:24.149Z,5068.00
2023-10-03T07:30:24.188Z,5268.00
2023-10-03T07:31:24.167Z,5408.00
2023-10-03T07:32:24.117Z,5612.00
2023-10-03T07:33:24.254Z,5812.00
2023-10-03T07:34:25.108Z,6088.00
2023-10-03T07:35:24.089Z,6260.00
2023-10-03T07:36:24.082Z,6460.00
2023-10-03T07:37:24.091Z,6456.00
2023-10-03T07:38:24.144Z,6556.00
2023-10-03T07:39:24.098Z,7868.00
2023-10-03T07:40:24.091Z,8088.00
2023-10-03T07:41:24.043Z,8316.00
2023-10-03T07:42:24.010Z,18848.00
2023-10-03T07:43:24.162Z,8836.00
2023-10-03T07:44:23.982Z,8188.00
2023-10-03T07:45:24.005Z,8016.00
2023-10-03T07:46:24.061Z,8008.00
2023-10-03T07:47:23.956Z,8504.00
2023-10-03T07:48:24.048Z,9216.00
2023-10-03T07:49:23.928Z,9992.00
2023-10-03T07:50:23.932Z,10608.00
2023-10-03T07:51:24.041Z,11560.00
2023-10-03T07:52:23.896Z,15840.00
2023-10-03T07:53:23.870Z,12700.00
2023-10-03T07:54:23.860Z,13188.00
2023-10-03T07:55:23.861Z,16288.00
2023-10-03T07:56:23.865Z,18624.00
2023-10-03T07:57:23.845Z,12884.00
2023-10-03T07:58:23.844Z,14460.00
2023-10-03T07:59:23.818Z,11052.00
2023-10-03T08:00:23.808Z,8808.00
2023-10-03T08:01:23.859Z,7912.00
2023-10-03T08:02:23.846Z,7204.00
2023-10-03T08:03:23.880Z,6572.00
2023-10-03T08:04:23.879Z,6056.00
2023-10-03T08:05:23.751Z,5656.00
2023-10-03T08:06:23.781Z,5704.00
2023-10-03T08:07:23.744Z,5784.00
2023-10-03T08:08:23.729Z,5976.00
2023-10-03T08:09:23.712Z,6484.00
2023-10-03T08:10:23.713Z,6788.00
2023-10-03T08:11:23.682Z,6952.00
2023-10-03T08:12:23.696Z,7084.00
2023-10-03T08:13:23.669Z,7020.00
2023-10-03T08:14:23.661Z,7176.00
2023-10-03T08:15:23.646Z,7096.00
2023-10-03T08:16:23.671Z,6796.00
2023-10-03T08:17:23.706Z,6888.00
2023-10-03T08:18:23.723Z,7288.00
2023-10-03T08:19:24.059Z,8120.00
2023-10-03T08:20:24.583Z,9040.00
2023-10-03T08:21:23.593Z,9816.00
2023-10-03T08:22:23.571Z,10292.00
2023-10-03T08:23:23.554Z,10128.00
2023-10-03T08:24:23.566Z,9716.00
2023-10-03T08:25:23.542Z,9092.00
2023-10-03T08:26:23.527Z,8088.00
2023-10-03T08:27:23.609Z,6904.00
2023-10-03T08:28:23.611Z,6172.00
2023-10-03T08:29:23.499Z,5660.00
2023-10-03T08:30:23.506Z,5292.00
2023-10-03T08:31:23.462Z,5192.00
2023-10-03T08:32:23.474Z,4972.00
2023-10-03T08:33:23.496Z,4928.00
2023-10-03T08:34:23.466Z,4748.00
2023-10-03T08:35:23.435Z,4680.00
2023-10-03T08:36:23.433Z,4768.00
2023-10-03T08:37:23.797Z,4944.00
2023-10-03T08:38:23.394Z,5088.00
2023-10-03T08:39:23.534Z,5364.00
2023-10-03T08:40:23.379Z,5392.00
2023-10-03T08:41:23.365Z,5228.00
2023-10-03T08:42:23.345Z,5056.00
2023-10-03T08:43:23.337Z,4816.00
2023-10-03T08:44:23.359Z,4676.00
2023-10-03T08:45:23.315Z,4788.00
2023-10-03T08:46:23.361Z,4820.00
2023-10-03T08:47:23.360Z,5076.00
2023-10-03T08:48:23.413Z,5468.00
2023-10-03T08:49:23.281Z,6136.00
2023-10-03T08:50:23.282Z,6732.00
2023-10-03T08:51:23.259Z,7668.00
2023-10-03T08:52:23.242Z,8284.00
2023-10-03T08:53:23.234Z,9032.00
2023-10-03T08:54:23.232Z,9420.00
2023-10-03T08:55:23.657Z,9804.00
2023-10-03T08:56:23.204Z,10852.00
2023-10-03T08:57:23.211Z,9988.00
2023-10-03T08:58:23.162Z,9208.00
2023-10-03T08:59:24.169Z,8716.00
2023-10-03T09:00:23.170Z,8432.00
2023-10-03T09:01:23.173Z,7688.00
2023-10-03T09:02:23.128Z,7640.00
2023-10-03T09:03:23.205Z,7480.00
2023-10-03T09:04:23.179Z,7296.00
2023-10-03T09:05:23.114Z,6896.00
2023-10-03T09:06:23.099Z,6524.00
2023-10-03T09:07:23.128Z,6088.00
2023-10-03T09:08:23.078Z,5880.00
2023-10-03T09:09:23.115Z,5872.00
2023-10-03T09:10:23.061Z,6084.00
2023-10-03T09:11:23.071Z,6496.00
2023-10-03T09:12:23.157Z,7284.00
2023-10-03T09:13:24.021Z,8052.00
2023-10-03T09:14:23.018Z,8592.00
2023-10-03T09:15:23.003Z,8644.00
2023-10-03T09:16:23.017Z,8104.00
2023-10-03T09:17:22.990Z,7964.00
2023-10-03T09:18:23.105Z,8512.00
2023-10-03T09:19:22.953Z,8952.00
2023-10-03T09:20:23.170Z,9876.00
2023-10-03T09:21:22.995Z,9676.00
2023-10-03T09:22:22.925Z,9580.00
2023-10-03T09:23:23.913Z,9788.00
2023-10-03T09:24:22.914Z,10136.00
2023-10-03T09:25:22.892Z,10460.00
2023-10-03T09:26:22.953Z,10296.00
2023-10-03T09:27:23.151Z,10332.00
2023-10-03T09:28:22.861Z,10180.00
2023-10-03T09:29:22.978Z,10204.00
2023-10-03T09:30:22.830Z,10280.00
2023-10-03T09:31:22.833Z,10496.00
2023-10-03T09:32:22.827Z,11564.00
2023-10-03T09:33:22.855Z,11960.00
2023-10-03T09:34:22.777Z,12952.00
2023-10-03T09:35:22.782Z,13772.00
2023-10-03T09:36:22.771Z,11172.00
2023-10-03T09:37:23.143Z,8572.00
2023-10-03T09:38:22.753Z,7928.00
2023-10-03T09:39:22.920Z,7388.00
2023-10-03T09:40:22.734Z,8012.00
2023-10-03T09:41:22.729Z,8344.00
2023-10-03T09:42:22.713Z,9836.00
2023-10-03T09:43:22.684Z,10604.00
2023-10-03T09:44:22.687Z,9192.00
2023-10-03T09:45:22.669Z,7900.00
2023-10-03T09:46:22.696Z,7364.00
2023-10-03T09:47:22.717Z,6756.00
2023-10-03T09:48:22.694Z,6732.00
2023-10-03T09:49:22.653Z,6944.00
2023-10-03T09:50:22.661Z,7512.00
2023-10-03T09:51:22.615Z,8816.00
2023-10-03T09:52:23.115Z,9372.00
2023-10-03T09:53:22.571Z,8280.00
2023-10-03T09:54:22.558Z,7164.00
2023-10-03T09:55:23.536Z,7428.00
2023-10-03T09:56:22.547Z,8264.00
2023-10-03T09:57:22.552Z,8916.00
2023-10-03T09:58:22.625Z,9676.00
2023-10-03T09:59:22.587Z,9876.00
2023-10-03T10:00:22.568Z,9992.00
2023-10-03T10:01:22.567Z,10092.00
2023-10-03T10:02:22.523Z,10360.00
2023-10-03T10:03:23.592Z,9692.00
2023-10-03T10:04:22.587Z,9688.00
2023-10-03T10:05:22.504Z,8876.00
2023-10-03T10:06:22.444Z,8204.00
2023-10-03T10:07:22.438Z,7696.00
2023-10-03T10:08:22.429Z,7420.00
2023-10-03T10:09:22.415Z,8080.00
2023-10-03T10:10:22.446Z,8280.00
2023-10-03T10:11:22.385Z,8508.00
2023-10-03T10:12:22.407Z,8896.00
2023-10-03T10:13:22.498Z,8516.00
2023-10-03T10:14:22.360Z,8648.00
2023-10-03T10:15:22.344Z,9476.00
2023-10-03T10:16:22.656Z,11140.00
2023-10-03T10:17:22.320Z,10064.00
2023-10-03T10:18:22.396Z,9844.00
2023-10-03T10:19:22.308Z,9500.00
2023-10-03T10:20:22.300Z,10100.00
2023-10-03T10:21:22.318Z,10064.00
2023-10-03T10:22:22.269Z,9412.00
2023-10-03T10:23:22.270Z,9216.00
2023-10-03T10:24:22.249Z,8652.00
2023-10-03T10:25:22.237Z,8300.00
2023-10-03T10:26:22.236Z,8320.00
2023-10-03T10:27:22.271Z,8452.00
2023-10-03T10:28:22.195Z,8364.00
2023-10-03T10:29:22.232Z,7784.00
2023-10-03T10:30:22.233Z,7536.00
2023-10-03T10:31:23.498Z,8208.00
2023-10-03T10:32:22.189Z,8688.00
2023-10-03T10:33:22.266Z,8268.00
2023-10-03T10:34:22.179Z,7488.00
2023-10-03T10:35:22.118Z,7124.00
2023-10-03T10:36:22.111Z,7696.00
2023-10-03T10:37:22.139Z,7400.00
2023-10-03T10:38:22.090Z,6772.00
2023-10-03T10:39:22.067Z,6024.00
2023-10-03T10:40:22.104Z,5044.00
2023-10-03T10:41:22.050Z,4436.00
2023-10-03T10:42:22.051Z,4240.00
2023-10-03T10:43:22.026Z,4484.00
2023-10-03T10:44:22.027Z,4184.00
2023-10-03T10:45:22.158Z,4088.00
2023-10-03T10:46:22.015Z,4596.00
2023-10-03T10:47:22.047Z,5520.00
2023-10-03T10:48:22.074Z,6688.00
2023-10-03T10:49:21.952Z,6876.00
2023-10-03T10:50:22.644Z,6292.00
2023-10-03T10:51:22.939Z,5948.00
2023-10-03T10:52:21.929Z,6360.00
2023-10-03T10:53:21.931Z,6772.00
2023-10-03T10:54:21.897Z,7000.00
2023-10-03T10:55:22.594Z,8432.00
2023-10-03T10:56:21.901Z,9604.00
2023-10-03T10:57:21.892Z,10584.00
2023-10-03T10:58:21.964Z,11712.00
2023-10-03T10:59:21.836Z,12372.00
2023-10-03T11:00:21.993Z,13276.00
2023-10-03T11:01:21.858Z,16224.00
2023-10-03T11:02:21.835Z,17664.00
2023-10-03T11:03:21.976Z,38656.00
2023-10-03T11:04:21.917Z,26656.00
2023-10-03T11:05:21.783Z,56416.00
2023-10-03T11:06:21.757Z,40544.00
2023-10-03T11:07:21.797Z,18464.00
2023-10-03T11:08:21.785Z,15032.00
2023-10-03T11:09:21.731Z,13196.00
2023-10-03T11:10:34.941Z,11664.00
2023-10-03T11:11:23.711Z,10344.00
2023-10-03T11:12:21.725Z,9560.00
2023-10-03T11:13:21.693Z,8404.00
2023-10-03T11:14:21.697Z,7580.00
2023-10-03T11:15:21.710Z,7104.00
2023-10-03T11:16:21.674Z,6144.00
2023-10-03T11:17:21.666Z,5220.00
2023-10-03T11:18:21.764Z,4528.00
2023-10-03T11:19:21.658Z,4180.00
2023-10-03T11:20:21.623Z,3788.00
2023-10-03T11:21:21.627Z,4060.00
2023-10-03T11:22:21.595Z,4096.00
2023-10-03T11:23:21.577Z,3872.00
2023-10-03T11:24:21.629Z,3528.00
2023-10-03T11:25:21.577Z,3792.00
2023-10-03T11:26:21.632Z,5168.00
2023-10-03T11:27:21.564Z,7052.00
2023-10-03T11:28:21.544Z,8624.00
2023-10-03T11:29:21.519Z,8812.00
2023-10-03T11:30:21.582Z,14996.00
2023-10-03T11:31:21.565Z,15244.00
2023-10-03T11:32:21.500Z,9936.00
2023-10-03T11:33:22.029Z,6196.00
2023-10-03T11:34:21.468Z,5456.00
2023-10-03T11:35:21.453Z,6464.00
2023-10-03T11:36:21.442Z,7604.00
2023-10-03T11:37:21.446Z,8088.00
2023-10-03T11:38:21.448Z,7936.00
2023-10-03T11:39:21.474Z,8524.00
2023-10-03T11:40:21.410Z,9304.00
2023-10-03T11:41:21.395Z,9156.00
2023-10-03T11:42:21.394Z,7412.00
2023-10-03T11:43:21.369Z,5540.00
2023-10-03T11:44:21.358Z,5160.00
2023-10-03T11:45:22.459Z,4920.00
2023-10-03T11:46:21.543Z,4428.00
2023-10-03T11:47:21.334Z,3876.00
2023-10-03T11:48:21.411Z,3624.00
2023-10-03T11:49:21.310Z,4256.00
2023-10-03T11:50:21.286Z,5252.00
2023-10-03T11:51:21.273Z,5048.00
2023-10-03T11:52:21.374Z,4788.00
2023-10-03T11:53:21.275Z,4772.00
2023-10-03T11:54:21.244Z,5284.00
2023-10-03T11:55:21.229Z,5952.00
2023-10-03T11:56:22.222Z,7432.00
2023-10-03T11:57:21.288Z,9168.00
2023-10-03T11:58:21.216Z,9848.00
2023-10-03T11:59:21.196Z,9232.00
2023-10-03T12:00:21.189Z,9352.00
2023-10-03T12:01:21.196Z,11120.00
2023-10-03T12:02:21.142Z,10760.00
2023-10-03T12:03:21.419Z,9228.00
2023-10-03T12:04:21.163Z,8936.00
2023-10-03T12:05:21.154Z,9196.00
2023-10-03T12:06:21.102Z,8996.00
2023-10-03T12:07:21.102Z,9212.00
2023-10-03T12:08:22.187Z,9688.00
2023-10-03T12:09:22.114Z,10108.00
2023-10-03T12:10:21.103Z,9408.00
2023-10-03T12:11:21.050Z,8608.00
2023-10-03T12:12:21.052Z,7116.00
2023-10-03T12:13:21.025Z,5544.00
2023-10-03T12:14:21.153Z,4700.00
2023-10-03T12:15:23.065Z,3880.00
2023-10-03T12:16:21.066Z,3448.00
2023-10-03T12:17:20.985Z,3612.00
2023-10-03T12:18:21.016Z,4016.00
2023-10-03T12:19:20.972Z,5012.00
2023-10-03T12:20:21.024Z,6316.00
2023-10-03T12:21:21.012Z,6644.00
2023-10-03T12:22:20.931Z,5796.00
2023-10-03T12:23:20.937Z,4840.00
2023-10-03T12:24:20.949Z,3916.00
2023-10-03T12:25:21.906Z,3872.00
2023-10-03T12:26:27.698Z,3968.00
2023-10-03T12:27:22.920Z,3988.00
2023-10-03T12:28:20.932Z,4188.00
2023-10-03T12:29:23.059Z,4420.00
2023-10-03T12:30:21.840Z,4684.00
2023-10-03T12:31:20.846Z,4944.00
2023-10-03T12:32:20.837Z,4868.00
2023-10-03T12:33:20.912Z,5100.00